sensor_id;sensor_type;location;lat;lon;timestamp;temperature;humidity
16674;DHT22;8450;52.654;10.326;2023-05-21T05:09:05;14.00;99.90
16674;DHT22;8450;52.654;10.326;2023-05-21T05:11:30;14.10;99.90
16674;DHT22;8450;52.654;10.326;2023-05-21T05:13:57;14.20;99.90
16674;DHT22;8450;52.654;10.326;2023-05-21T05:16:22;14.20;99.90
16674;DHT22;8450;52.654;10.326;2023-05-21T05:18:50;14.30;99.90
16674;DHT22;8450;52.654;10.326;2023-05-21T05:21:16;14.30;99.90
16674;DHT22;8450;52.654;10.326;2023-05-21T05:23:43;14.40;99.90
16674;DHT22;8450;52.654;10.326;2023-05-21T05:26:12;14.50;99.90
16674;DHT22;8450;52.654;10.326;2023-05-21T05:28:38;14.50;99.90
16674;DHT22;8450;52.654;10.326;2023-05-21T05:31:04;14.50;99.90
16674;DHT22;8450;52.654;10.326;2023-05-21T05:33:31;14.60;99.90
16674;DHT22;8450;52.654;10.326;2023-05-21T05:35:56;14.60;99.90
16674;DHT22;8450;52.654;10.326;2023-05-21T05:38:22;14.70;99.90
16674;DHT22;8450;52.654;10.326;2023-05-21T05:40:48;14.80;99.90
16674;DHT22;8450;52.654;10.326;2023-05-21T05:43:13;14.80;99.90
16674;DHT22;8450;52.654;10.326;2023-05-21T05:45:39;14.90;99.90
16674;DHT22;8450;52.654;10.326;2023-05-21T05:48:10;15.00;99.90
16674;DHT22;8450;52.654;10.326;2023-05-21T05:50:36;15.00;99.90
16674;DHT22;8450;52.654;10.326;2023-05-21T05:53:01;15.10;99.90
16674;DHT22;8450;52.654;10.326;2023-05-21T05:55:28;15.20;99.90
16674;DHT22;8450;52.654;10.326;2023-05-21T05:57:53;15.20;99.90
16674;DHT22;8450;52.654;10.326;2023-05-21T06:00:19;15.20;99.90
16674;DHT22;8450;52.654;10.326;2023-05-21T06:02:47;15.30;99.90
16674;DHT22;8450;52.654;10.326;2023-05-21T06:05:13;15.30;99.90
16674;DHT22;8450;52.654;10.326;2023-05-21T06:07:39;15.40;99.90
16674;DHT22;8450;52.654;10.326;2023-05-21T06:10:06;15.40;99.90
16674;DHT22;8450;52.654;10.326;2023-05-21T06:12:32;15.50;99.90
16674;DHT22;8450;52.654;10.326;2023-05-21T06:14:57;15.60;99.90
16674;DHT22;8450;52.654;10.326;2023-05-21T06:17:23;15.60;99.90
16674;DHT22;8450;52.654;10.326;2023-05-21T06:19:50;15.70;99.90
16674;DHT22;8450;52.654;10.326;2023-05-21T06:22:15;15.80;99.90
16674;DHT22;8450;52.654;10.326;2023-05-21T06:24:42;15.90;99.90
16674;DHT22;8450;52.654;10.326;2023-05-21T06:27:08;16.00;99.90
16674;DHT22;8450;52.654;10.326;2023-05-21T06:29:34;16.10;99.90
16674;DHT22;8450;52.654;10.326;2023-05-21T06:32:00;16.10;99.90
16674;DHT22;8450;52.654;10.326;2023-05-21T06:34:26;16.20;99.90
16674;DHT22;8450;52.654;10.326;2023-05-21T06:36:53;16.20;99.90
16674;DHT22;8450;52.654;10.326;2023-05-21T06:39:18;16.30;99.90
16674;DHT22;8450;52.654;10.326;2023-05-21T06:41:44;16.20;99.90
16674;DHT22;8450;52.654;10.326;2023-05-21T06:44:28;16.30;99.90
16674;DHT22;8450;52.654;10.326;2023-05-21T06:47:10;16.30;99.90
16674;DHT22;8450;52.654;10.326;2023-05-21T06:49:35;16.30;99.90
16674;DHT22;8450;52.654;10.326;2023-05-21T06:52:01;16.40;99.90
16674;DHT22;8450;52.654;10.326;2023-05-21T06:54:27;16.40;99.90
16674;DHT22;8450;52.654;10.326;2023-05-21T06:56:53;16.50;99.90
16674;DHT22;8450;52.654;10.326;2023-05-21T06:59:19;16.60;99.90
16674;DHT22;8450;52.654;10.326;2023-05-21T07:01:44;16.70;99.90
16674;DHT22;8450;52.654;10.326;2023-05-21T07:04:10;16.70;99.90
16674;DHT22;8450;52.654;10.326;2023-05-21T07:06:36;16.80;99.90
16674;DHT22;8450;52.654;10.326;2023-05-21T07:09:03;16.90;99.90
16674;DHT22;8450;52.654;10.326;2023-05-21T07:11:30;16.90;99.90
16674;DHT22;8450;52.654;10.326;2023-05-21T07:13:58;17.00;99.90
16674;DHT22;8450;52.654;10.326;2023-05-21T07:16:29;17.10;99.90
16674;DHT22;8450;52.654;10.326;2023-05-21T07:18:56;17.10;99.90
16674;DHT22;8450;52.654;10.326;2023-05-21T07:21:21;17.20;99.90
16674;DHT22;8450;52.654;10.326;2023-05-21T07:23:49;17.30;99.90
16674;DHT22;8450;52.654;10.326;2023-05-21T07:26:14;17.40;99.90
16674;DHT22;8450;52.654;10.326;2023-05-21T07:28:40;17.40;99.90
16674;DHT22;8450;52.654;10.326;2023-05-21T07:31:05;17.50;99.90
16674;DHT22;8450;52.654;10.326;2023-05-21T07:33:38;17.50;99.90
16674;DHT22;8450;52.654;10.326;2023-05-21T07:36:04;17.70;99.90
16674;DHT22;8450;52.654;10.326;2023-05-21T07:38:31;17.80;99.90
16674;DHT22;8450;52.654;10.326;2023-05-21T07:40:56;17.90;99.90
16674;DHT22;8450;52.654;10.326;2023-05-21T07:43:22;18.10;99.90
16674;DHT22;8450;52.654;10.326;2023-05-21T07:45:48;18.10;99.90
16674;DHT22;8450;52.654;10.326;2023-05-21T07:48:14;18.20;99.90
16674;DHT22;8450;52.654;10.326;2023-05-21T07:50:50;18.20;99.90
16674;DHT22;8450;52.654;10.326;2023-05-21T07:53:17;18.30;99.90
16674;DHT22;8450;52.654;10.326;2023-05-21T07:55:43;18.30;99.90
16674;DHT22;8450;52.654;10.326;2023-05-21T07:58:14;18.40;99.90
16674;DHT22;8450;52.654;10.326;2023-05-21T08:00:42;18.50;99.90
16674;DHT22;8450;52.654;10.326;2023-05-21T08:03:10;18.60;99.90
16674;DHT22;8450;52.654;10.326;2023-05-21T08:05:38;18.60;99.90
16674;DHT22;8450;52.654;10.326;2023-05-21T08:08:04;18.70;99.90
16674;DHT22;8450;52.654;10.326;2023-05-21T08:10:30;18.70;99.90
16674;DHT22;8450;52.654;10.326;2023-05-21T08:12:56;18.70;99.90
16674;DHT22;8450;52.654;10.326;2023-05-21T08:15:22;18.70;99.90
16674;DHT22;8450;52.654;10.326;2023-05-21T08:17:48;18.70;99.90
16674;DHT22;8450;52.654;10.326;2023-05-21T08:20:14;18.80;99.90
16674;DHT22;8450;52.654;10.326;2023-05-21T08:22:42;18.80;99.90
16674;DHT22;8450;52.654;10.326;2023-05-21T08:25:08;18.80;99.90
16674;DHT22;8450;52.654;10.326;2023-05-21T08:27:34;18.80;99.90
16674;DHT22;8450;52.654;10.326;2023-05-21T08:29:59;18.80;99.90
16674;DHT22;8450;52.654;10.326;2023-05-21T08:32:25;18.90;99.90
16674;DHT22;8450;52.654;10.326;2023-05-21T08:34:52;18.90;99.90
16674;DHT22;8450;52.654;10.326;2023-05-21T08:37:37;19.00;99.90
16674;DHT22;8450;52.654;10.326;2023-05-21T08:40:13;19.10;99.90
16674;DHT22;8450;52.654;10.326;2023-05-21T08:42:46;19.10;99.90
16674;DHT22;8450;52.654;10.326;2023-05-21T08:45:21;19.20;99.90
16674;DHT22;8450;52.654;10.326;2023-05-21T08:47:48;19.30;99.90
16674;DHT22;8450;52.654;10.326;2023-05-21T08:50:16;19.40;99.90
16674;DHT22;8450;52.654;10.326;2023-05-21T08:52:45;19.50;99.90
16674;DHT22;8450;52.654;10.326;2023-05-21T08:55:11;19.60;99.90
16674;DHT22;8450;52.654;10.326;2023-05-21T08:57:42;19.60;99.90
16674;DHT22;8450;52.654;10.326;2023-05-21T09:00:08;19.60;99.90
16674;DHT22;8450;52.654;10.326;2023-05-21T09:02:34;19.70;99.90
16674;DHT22;8450;52.654;10.326;2023-05-21T09:05:05;19.80;99.90
16674;DHT22;8450;52.654;10.326;2023-05-21T09:10:47;20.20;99.90
16674;DHT22;8450;52.654;10.326;2023-05-21T09:13:13;20.30;99.90
16674;DHT22;8450;52.654;10.326;2023-05-21T09:15:39;20.40;99.90
16674;DHT22;8450;52.654;10.326;2023-05-21T09:18:06;20.50;99.90
16674;DHT22;8450;52.654;10.326;2023-05-21T09:20:54;20.60;99.90
16674;DHT22;8450;52.654;10.326;2023-05-21T09:23:21;20.70;99.90
16674;DHT22;8450;52.654;10.326;2023-05-21T09:25:47;21.10;99.90
16674;DHT22;8450;52.654;10.326;2023-05-21T09:28:20;21.30;99.90
16674;DHT22;8450;52.654;10.326;2023-05-21T09:30:47;21.50;99.90
16674;DHT22;8450;52.654;10.326;2023-05-21T09:33:23;21.90;99.90
16674;DHT22;8450;52.654;10.326;2023-05-21T09:35:50;22.10;99.90
16674;DHT22;8450;52.654;10.326;2023-05-21T09:38:16;22.10;99.90
16674;DHT22;8450;52.654;10.326;2023-05-21T09:40:43;22.10;99.90
16674;DHT22;8450;52.654;10.326;2023-05-21T09:43:15;22.10;99.90
16674;DHT22;8450;52.654;10.326;2023-05-21T09:45:51;22.00;99.90
16674;DHT22;8450;52.654;10.326;2023-05-21T09:48:38;22.10;99.90
16674;DHT22;8450;52.654;10.326;2023-05-21T09:51:14;22.10;99.90
16674;DHT22;8450;52.654;10.326;2023-05-21T09:53:52;22.00;99.90
16674;DHT22;8450;52.654;10.326;2023-05-21T09:56:20;22.00;99.90
16674;DHT22;8450;52.654;10.326;2023-05-21T09:58:47;22.00;99.90
16674;DHT22;8450;52.654;10.326;2023-05-21T10:01:13;21.90;99.90
16674;DHT22;8450;52.654;10.326;2023-05-21T10:03:38;22.00;99.90
16674;DHT22;8450;52.654;10.326;2023-05-21T10:06:07;21.90;99.90
16674;DHT22;8450;52.654;10.326;2023-05-21T10:08:35;21.90;99.90
16674;DHT22;8450;52.654;10.326;2023-05-21T10:11:05;22.00;99.90
16674;DHT22;8450;52.654;10.326;2023-05-21T10:13:33;22.10;99.90
16674;DHT22;8450;52.654;10.326;2023-05-21T10:16:03;22.10;99.90
16674;DHT22;8450;52.654;10.326;2023-05-21T10:18:31;22.20;99.90
16674;DHT22;8450;52.654;10.326;2023-05-21T10:20:57;22.30;99.90
16674;DHT22;8450;52.654;10.326;2023-05-21T10:23:23;22.40;99.90
16674;DHT22;8450;52.654;10.326;2023-05-21T10:25:50;22.40;99.90
16674;DHT22;8450;52.654;10.326;2023-05-21T10:28:17;22.60;99.90
16674;DHT22;8450;52.654;10.326;2023-05-21T10:30:43;23.00;99.90
16674;DHT22;8450;52.654;10.326;2023-05-21T10:33:14;23.60;99.90
16674;DHT22;8450;52.654;10.326;2023-05-21T10:35:40;24.10;99.90
16674;DHT22;8450;52.654;10.326;2023-05-21T10:38:08;24.50;99.90
16674;DHT22;8450;52.654;10.326;2023-05-21T10:40:34;24.60;99.90
16674;DHT22;8450;52.654;10.326;2023-05-21T10:43:24;24.60;99.90
16674;DHT22;8450;52.654;10.326;2023-05-21T10:54:54;24.20;99.90
16674;DHT22;8450;52.654;10.326;2023-05-21T10:57:36;24.20;99.90
16674;DHT22;8450;52.654;10.326;2023-05-21T11:00:08;24.20;99.90
16674;DHT22;8450;52.654;10.326;2023-05-21T11:02:35;24.40;99.90
16674;DHT22;8450;52.654;10.326;2023-05-21T11:05:01;24.20;99.90
16674;DHT22;8450;52.654;10.326;2023-05-21T11:07:56;24.20;99.90
16674;DHT22;8450;52.654;10.326;2023-05-21T11:10:36;24.20;99.90
16674;DHT22;8450;52.654;10.326;2023-05-21T11:13:14;24.20;99.90
16674;DHT22;8450;52.654;10.326;2023-05-21T11:23:55;24.90;99.90
16674;DHT22;8450;52.654;10.326;2023-05-21T11:26:23;25.10;99.90
16674;DHT22;8450;52.654;10.326;2023-05-21T11:31:30;25.00;99.90
16674;DHT22;8450;52.654;10.326;2023-05-21T11:34:11;25.30;99.90
16674;DHT22;8450;52.654;10.326;2023-05-21T11:36:37;25.60;99.90
16674;DHT22;8450;52.654;10.326;2023-05-21T11:39:08;26.00;99.90
16674;DHT22;8450;52.654;10.326;2023-05-21T11:41:59;26.80;99.90
16674;DHT22;8450;52.654;10.326;2023-05-21T11:44:39;28.00;99.90
16674;DHT22;8450;52.654;10.326;2023-05-21T11:47:06;29.20;99.90
16674;DHT22;8450;52.654;10.326;2023-05-21T11:49:32;30.30;99.90
16674;DHT22;8450;52.654;10.326;2023-05-21T11:52:03;31.70;99.90
16674;DHT22;8450;52.654;10.326;2023-05-21T11:54:29;32.60;99.90
16674;DHT22;8450;52.654;10.326;2023-05-21T11:57:05;33.00;99.90
16674;DHT22;8450;52.654;10.326;2023-05-21T11:59:31;33.70;99.90
16674;DHT22;8450;52.654;10.326;2023-05-21T12:01:58;34.60;99.90
16674;DHT22;8450;52.654;10.326;2023-05-21T12:04:34;36.00;99.90
16674;DHT22;8450;52.654;10.326;2023-05-21T12:07:06;36.80;99.90
16674;DHT22;8450;52.654;10.326;2023-05-21T12:09:39;37.70;99.90
16674;DHT22;8450;52.654;10.326;2023-05-21T12:12:07;38.00;99.90
16674;DHT22;8450;52.654;10.326;2023-05-21T12:14:33;38.30;99.90
16674;DHT22;8450;52.654;10.326;2023-05-21T12:16:59;39.10;99.90
16674;DHT22;8450;52.654;10.326;2023-05-21T12:19:24;39.30;99.00
16674;DHT22;8450;52.654;10.326;2023-05-21T12:21:50;39.60;98.00
16674;DHT22;8450;52.654;10.326;2023-05-21T12:24:16;39.80;97.50
16674;DHT22;8450;52.654;10.326;2023-05-21T12:26:42;39.40;97.60
16674;DHT22;8450;52.654;10.326;2023-05-21T12:29:10;39.10;95.90
16674;DHT22;8450;52.654;10.326;2023-05-21T12:31:49;38.80;96.40
16674;DHT22;8450;52.654;10.326;2023-05-21T12:34:14;39.40;96.20
16674;DHT22;8450;52.654;10.326;2023-05-21T12:36:43;39.90;95.80
16674;DHT22;8450;52.654;10.326;2023-05-21T12:39:16;38.70;95.80
16674;DHT22;8450;52.654;10.326;2023-05-21T12:41:42;37.60;95.70
16674;DHT22;8450;52.654;10.326;2023-05-21T12:44:09;37.80;95.90
16674;DHT22;8450;52.654;10.326;2023-05-21T12:46:35;35.00;97.30
16674;DHT22;8450;52.654;10.326;2023-05-21T12:49:01;30.20;99.90
16674;DHT22;8450;52.654;10.326;2023-05-21T12:51:36;28.20;99.90
16674;DHT22;8450;52.654;10.326;2023-05-21T12:54:03;27.60;99.90
16674;DHT22;8450;52.654;10.326;2023-05-21T12:56:43;27.30;99.90
16674;DHT22;8450;52.654;10.326;2023-05-21T12:59:12;27.30;99.90
16674;DHT22;8450;52.654;10.326;2023-05-21T13:01:38;27.30;99.90
16674;DHT22;8450;52.654;10.326;2023-05-21T13:04:04;27.50;99.90
16674;DHT22;8450;52.654;10.326;2023-05-21T13:06:41;27.90;99.90
16674;DHT22;8450;52.654;10.326;2023-05-21T13:09:06;27.90;99.90
16674;DHT22;8450;52.654;10.326;2023-05-21T13:11:32;28.70;99.90
16674;DHT22;8450;52.654;10.326;2023-05-21T13:13:57;28.70;99.90
16674;DHT22;8450;52.654;10.326;2023-05-21T13:16:23;28.30;99.90
16674;DHT22;8450;52.654;10.326;2023-05-21T13:18:48;28.70;99.90
16674;DHT22;8450;52.654;10.326;2023-05-21T13:21:14;29.30;99.90
16674;DHT22;8450;52.654;10.326;2023-05-21T13:23:40;29.40;99.90
16674;DHT22;8450;52.654;10.326;2023-05-21T13:26:05;30.00;99.90
16674;DHT22;8450;52.654;10.326;2023-05-21T13:28:31;29.70;99.90
16674;DHT22;8450;52.654;10.326;2023-05-21T13:30:56;29.60;99.90
16674;DHT22;8450;52.654;10.326;2023-05-21T13:33:22;28.50;99.90
16674;DHT22;8450;52.654;10.326;2023-05-21T13:35:47;27.60;99.90
16674;DHT22;8450;52.654;10.326;2023-05-21T13:38:15;27.40;99.90
16674;DHT22;8450;52.654;10.326;2023-05-21T13:40:41;27.10;99.90
16674;DHT22;8450;52.654;10.326;2023-05-21T13:43:07;27.00;99.90
16674;DHT22;8450;52.654;10.326;2023-05-21T13:45:32;27.10;99.90
16674;DHT22;8450;52.654;10.326;2023-05-21T13:47:58;27.00;99.90
16674;DHT22;8450;52.654;10.326;2023-05-21T13:50:24;27.10;99.90
16674;DHT22;8450;52.654;10.326;2023-05-21T13:52:49;26.90;99.90
16674;DHT22;8450;52.654;10.326;2023-05-21T13:55:15;27.20;99.90
16674;DHT22;8450;52.654;10.326;2023-05-21T13:57:41;26.70;99.90
16674;DHT22;8450;52.654;10.326;2023-05-21T14:00:07;26.90;99.90
16674;DHT22;8450;52.654;10.326;2023-05-21T14:02:35;27.00;99.90
16674;DHT22;8450;52.654;10.326;2023-05-21T14:05:01;27.00;99.90
16674;DHT22;8450;52.654;10.326;2023-05-21T14:07:26;27.30;99.90
16674;DHT22;8450;52.654;10.326;2023-05-21T14:09:52;27.40;99.90
16674;DHT22;8450;52.654;10.326;2023-05-21T14:12:17;27.40;99.90
16674;DHT22;8450;52.654;10.326;2023-05-21T14:14:43;27.70;99.90
16674;DHT22;8450;52.654;10.326;2023-05-21T14:17:09;27.60;99.90
16674;DHT22;8450;52.654;10.326;2023-05-21T14:19:34;27.60;99.90
16674;DHT22;8450;52.654;10.326;2023-05-21T14:22:00;27.30;99.90
16674;DHT22;8450;52.654;10.326;2023-05-21T14:24:25;27.50;99.90
16674;DHT22;8450;52.654;10.326;2023-05-21T14:26:51;27.30;99.90
16674;DHT22;8450;52.654;10.326;2023-05-21T14:29:16;27.30;99.90
16674;DHT22;8450;52.654;10.326;2023-05-21T14:31:42;27.40;99.90
16674;DHT22;8450;52.654;10.326;2023-05-21T14:34:07;27.30;99.90
16674;DHT22;8450;52.654;10.326;2023-05-21T14:36:33;27.50;99.90
16674;DHT22;8450;52.654;10.326;2023-05-21T14:38:59;27.30;99.90
16674;DHT22;8450;52.654;10.326;2023-05-21T14:41:25;27.40;99.90
16674;DHT22;8450;52.654;10.326;2023-05-21T14:43:52;27.50;99.90
16674;DHT22;8450;52.654;10.326;2023-05-21T14:46:17;27.40;99.90
16674;DHT22;8450;52.654;10.326;2023-05-21T14:48:43;27.60;99.90
16674;DHT22;8450;52.654;10.326;2023-05-21T14:51:11;27.60;99.90
16674;DHT22;8450;52.654;10.326;2023-05-21T14:53:38;28.00;99.90
16674;DHT22;8450;52.654;10.326;2023-05-21T14:56:03;27.80;99.90
16674;DHT22;8450;52.654;10.326;2023-05-21T14:58:29;28.10;99.90
16674;DHT22;8450;52.654;10.326;2023-05-21T15:00:55;28.10;99.90
16674;DHT22;8450;52.654;10.326;2023-05-21T15:03:20;27.50;99.90
16674;DHT22;8450;52.654;10.326;2023-05-21T15:05:46;27.60;99.90
16674;DHT22;8450;52.654;10.326;2023-05-21T15:08:11;27.50;99.90
16674;DHT22;8450;52.654;10.326;2023-05-21T15:10:37;27.10;99.90
16674;DHT22;8450;52.654;10.326;2023-05-21T15:13:03;27.00;99.90
16674;DHT22;8450;52.654;10.326;2023-05-21T15:15:28;27.20;99.90
16674;DHT22;8450;52.654;10.326;2023-05-21T15:17:54;27.40;99.90
16674;DHT22;8450;52.654;10.326;2023-05-21T15:20:21;27.50;99.90
16674;DHT22;8450;52.654;10.326;2023-05-21T15:22:46;27.50;99.90
16674;DHT22;8450;52.654;10.326;2023-05-21T15:25:12;27.30;99.90
16674;DHT22;8450;52.654;10.326;2023-05-21T15:27:38;27.20;99.90
16674;DHT22;8450;52.654;10.326;2023-05-21T15:30:03;27.10;99.90
16674;DHT22;8450;52.654;10.326;2023-05-21T15:32:29;27.00;99.90
16674;DHT22;8450;52.654;10.326;2023-05-21T15:34:55;26.80;99.90
16674;DHT22;8450;52.654;10.326;2023-05-21T15:37:21;27.00;99.90
16674;DHT22;8450;52.654;10.326;2023-05-21T15:39:47;27.00;99.90
16674;DHT22;8450;52.654;10.326;2023-05-21T15:42:13;27.10;99.90
16674;DHT22;8450;52.654;10.326;2023-05-21T15:44:39;26.90;99.90
16674;DHT22;8450;52.654;10.326;2023-05-21T15:47:05;26.70;99.90
16674;DHT22;8450;52.654;10.326;2023-05-21T15:49:31;26.90;99.90
16674;DHT22;8450;52.654;10.326;2023-05-21T15:51:56;27.00;99.90
16674;DHT22;8450;52.654;10.326;2023-05-21T15:54:24;27.00;99.90
16674;DHT22;8450;52.654;10.326;2023-05-21T15:56:50;26.80;99.90
16674;DHT22;8450;52.654;10.326;2023-05-21T15:59:16;26.70;99.90
16674;DHT22;8450;52.654;10.326;2023-05-21T16:01:41;26.90;99.90
16674;DHT22;8450;52.654;10.326;2023-05-21T16:04:07;27.00;99.90
16674;DHT22;8450;52.654;10.326;2023-05-21T16:06:32;26.80;99.90
16674;DHT22;8450;52.654;10.326;2023-05-21T16:08:58;26.60;99.90
16674;DHT22;8450;52.654;10.326;2023-05-21T16:11:25;26.60;99.90
16674;DHT22;8450;52.654;10.326;2023-05-21T16:13:52;26.80;99.90
16674;DHT22;8450;52.654;10.326;2023-05-21T16:16:18;26.80;99.90
16674;DHT22;8450;52.654;10.326;2023-05-21T16:18:43;27.00;99.90
16674;DHT22;8450;52.654;10.326;2023-05-21T16:21:09;26.90;99.90
16674;DHT22;8450;52.654;10.326;2023-05-21T16:23:35;26.80;99.90
16674;DHT22;8450;52.654;10.326;2023-05-21T16:26:07;26.90;99.90
16674;DHT22;8450;52.654;10.326;2023-05-21T16:28:33;26.90;99.90
16674;DHT22;8450;52.654;10.326;2023-05-21T16:30:59;26.80;99.90
16674;DHT22;8450;52.654;10.326;2023-05-21T16:33:24;26.50;99.90
16674;DHT22;8450;52.654;10.326;2023-05-21T16:35:50;26.50;99.90
16674;DHT22;8450;52.654;10.326;2023-05-21T16:38:16;26.70;99.90
16674;DHT22;8450;52.654;10.326;2023-05-21T16:40:42;26.70;99.90
16674;DHT22;8450;52.654;10.326;2023-05-21T16:43:09;26.60;99.90
16674;DHT22;8450;52.654;10.326;2023-05-21T16:45:42;26.60;99.90
16674;DHT22;8450;52.654;10.326;2023-05-21T16:48:08;26.50;99.90
16674;DHT22;8450;52.654;10.326;2023-05-21T16:50:35;26.70;99.90
16674;DHT22;8450;52.654;10.326;2023-05-21T16:53:00;26.70;99.90
16674;DHT22;8450;52.654;10.326;2023-05-21T16:55:31;26.70;99.90
16674;DHT22;8450;52.654;10.326;2023-05-21T16:57:57;26.30;99.90
16674;DHT22;8450;52.654;10.326;2023-05-21T17:00:23;26.30;99.90
16674;DHT22;8450;52.654;10.326;2023-05-21T17:02:48;26.40;99.90
16674;DHT22;8450;52.654;10.326;2023-05-21T17:05:14;26.30;99.90
16674;DHT22;8450;52.654;10.326;2023-05-21T17:07:40;26.30;99.90
16674;DHT22;8450;52.654;10.326;2023-05-21T17:10:06;26.20;99.90
16674;DHT22;8450;52.654;10.326;2023-05-21T17:12:31;26.00;99.90
16674;DHT22;8450;52.654;10.326;2023-05-21T17:14:58;25.90;99.90
16674;DHT22;8450;52.654;10.326;2023-05-21T17:17:23;25.70;99.90
16674;DHT22;8450;52.654;10.326;2023-05-21T17:19:49;25.70;99.90
16674;DHT22;8450;52.654;10.326;2023-05-21T17:22:14;25.70;99.90
16674;DHT22;8450;52.654;10.326;2023-05-21T17:24:40;25.60;99.90
16674;DHT22;8450;52.654;10.326;2023-05-21T17:27:05;25.50;99.90
16674;DHT22;8450;52.654;10.326;2023-05-21T17:29:31;25.50;99.90
16674;DHT22;8450;52.654;10.326;2023-05-21T17:31:58;25.40;99.90
16674;DHT22;8450;52.654;10.326;2023-05-21T17:34:23;25.20;99.90
16674;DHT22;8450;52.654;10.326;2023-05-21T17:36:53;25.00;99.90
16674;DHT22;8450;52.654;10.326;2023-05-21T17:39:19;25.00;99.90
16674;DHT22;8450;52.654;10.326;2023-05-21T17:41:45;25.00;99.90
16674;DHT22;8450;52.654;10.326;2023-05-21T17:44:17;24.90;99.90
16674;DHT22;8450;52.654;10.326;2023-05-21T17:46:44;24.70;99.90
16674;DHT22;8450;52.654;10.326;2023-05-21T17:49:09;24.70;99.90
16674;DHT22;8450;52.654;10.326;2023-05-21T17:51:35;24.70;99.90
16674;DHT22;8450;52.654;10.326;2023-05-21T17:54:01;24.70;99.90
16674;DHT22;8450;52.654;10.326;2023-05-21T17:56:27;24.50;99.90
16674;DHT22;8450;52.654;10.326;2023-05-21T17:58:53;24.50;99.90
16674;DHT22;8450;52.654;10.326;2023-05-21T18:01:19;24.40;99.90
16674;DHT22;8450;52.654;10.326;2023-05-21T18:03:45;24.40;99.90
16674;DHT22;8450;52.654;10.326;2023-05-21T18:06:11;24.30;99.90
16674;DHT22;8450;52.654;10.326;2023-05-21T18:08:37;24.30;99.90
16674;DHT22;8450;52.654;10.326;2023-05-21T18:11:02;24.30;99.90
16674;DHT22;8450;52.654;10.326;2023-05-21T18:13:28;24.00;99.90
16674;DHT22;8450;52.654;10.326;2023-05-21T18:15:54;24.00;99.90
16674;DHT22;8450;52.654;10.326;2023-05-21T18:18:21;23.90;99.90
16674;DHT22;8450;52.654;10.326;2023-05-21T18:20:48;23.80;99.90
16674;DHT22;8450;52.654;10.326;2023-05-21T18:23:13;23.80;99.90
16674;DHT22;8450;52.654;10.326;2023-05-21T18:25:39;23.80;99.90
